sensor_id;sensor_type;location;lat;lon;timestamp;temperature;humidity
2723;DHT22;1369;53.216;10.396;2022-09-16T00:00:19;12.30;99.90
2723;DHT22;1369;53.216;10.396;2022-09-16T00:02:45;12.30;99.90
2723;DHT22;1369;53.216;10.396;2022-09-16T00:05:11;12.20;99.90
2723;DHT22;1369;53.216;10.396;2022-09-16T00:07:37;12.20;99.90
2723;DHT22;1369;53.216;10.396;2022-09-16T00:10:03;12.20;99.90
2723;DHT22;1369;53.216;10.396;2022-09-16T00:12:29;12.20;99.90
2723;DHT22;1369;53.216;10.396;2022-09-16T00:14:54;12.20;99.90
2723;DHT22;1369;53.216;10.396;2022-09-16T00:17:21;12.20;99.90
2723;DHT22;1369;53.216;10.396;2022-09-16T00:19:46;12.20;99.90
2723;DHT22;1369;53.216;10.396;2022-09-16T00:22:12;12.10;99.90
2723;DHT22;1369;53.216;10.396;2022-09-16T00:24:38;12.10;99.90
2723;DHT22;1369;53.216;10.396;2022-09-16T00:27:04;12.10;99.90
2723;DHT22;1369;53.216;10.396;2022-09-16T00:29:29;12.10;99.90
2723;DHT22;1369;53.216;10.396;2022-09-16T00:31:55;12.10;99.90
2723;DHT22;1369;53.216;10.396;2022-09-16T00:34:20;12.20;99.90
2723;DHT22;1369;53.216;10.396;2022-09-16T00:36:46;12.30;99.90
2723;DHT22;1369;53.216;10.396;2022-09-16T00:39:11;12.30;99.90
2723;DHT22;1369;53.216;10.396;2022-09-16T00:41:37;12.30;99.90
2723;DHT22;1369;53.216;10.396;2022-09-16T00:44:05;12.30;99.90
2723;DHT22;1369;53.216;10.396;2022-09-16T00:46:43;12.40;99.90
2723;DHT22;1369;53.216;10.396;2022-09-16T00:49:27;12.40;99.90
2723;DHT22;1369;53.216;10.396;2022-09-16T00:51:59;12.40;99.90
2723;DHT22;1369;53.216;10.396;2022-09-16T00:54:27;12.40;99.90
2723;DHT22;1369;53.216;10.396;2022-09-16T00:56:55;12.40;99.90
2723;DHT22;1369;53.216;10.396;2022-09-16T00:59:26;12.40;99.90
2723;DHT22;1369;53.216;10.396;2022-09-16T01:01:53;12.40;99.90
2723;DHT22;1369;53.216;10.396;2022-09-16T01:04:25;12.30;99.90
2723;DHT22;1369;53.216;10.396;2022-09-16T01:06:51;12.30;99.90
2723;DHT22;1369;53.216;10.396;2022-09-16T01:09:18;12.30;99.90
2723;DHT22;1369;53.216;10.396;2022-09-16T01:11:45;12.20;99.90
2723;DHT22;1369;53.216;10.396;2022-09-16T01:14:11;12.20;99.90
2723;DHT22;1369;53.216;10.396;2022-09-16T01:17:23;12.10;99.90
2723;DHT22;1369;53.216;10.396;2022-09-16T01:22:45;12.10;99.90
2723;DHT22;1369;53.216;10.396;2022-09-16T01:33:27;12.00;99.90
2723;DHT22;1369;53.216;10.396;2022-09-16T01:41:27;11.90;99.90
2723;DHT22;1369;53.216;10.396;2022-09-16T01:44:05;11.90;99.90
2723;DHT22;1369;53.216;10.396;2022-09-16T01:46:51;11.80;99.90
2723;DHT22;1369;53.216;10.396;2022-09-16T01:52:19;11.70;99.90
2723;DHT22;1369;53.216;10.396;2022-09-16T01:57:42;11.70;99.90
2723;DHT22;1369;53.216;10.396;2022-09-16T02:00:10;11.80;99.90
2723;DHT22;1369;53.216;10.396;2022-09-16T02:02:48;11.90;99.90
2723;DHT22;1369;53.216;10.396;2022-09-16T02:05:23;12.00;99.90
2723;DHT22;1369;53.216;10.396;2022-09-16T02:07:56;12.00;99.90
2723;DHT22;1369;53.216;10.396;2022-09-16T02:10:29;12.10;99.90
2723;DHT22;1369;53.216;10.396;2022-09-16T02:13:01;12.10;99.90
2723;DHT22;1369;53.216;10.396;2022-09-16T02:15:29;12.00;99.90
2723;DHT22;1369;53.216;10.396;2022-09-16T02:18:04;11.90;99.90
2723;DHT22;1369;53.216;10.396;2022-09-16T02:20:31;11.90;99.90
2723;DHT22;1369;53.216;10.396;2022-09-16T02:23:14;11.90;99.90
2723;DHT22;1369;53.216;10.396;2022-09-16T02:25:41;11.80;99.90
2723;DHT22;1369;53.216;10.396;2022-09-16T02:28:11;11.80;99.90
2723;DHT22;1369;53.216;10.396;2022-09-16T02:30:41;11.90;99.90
2723;DHT22;1369;53.216;10.396;2022-09-16T02:33:08;12.00;99.90
2723;DHT22;1369;53.216;10.396;2022-09-16T02:35:35;12.10;99.90
2723;DHT22;1369;53.216;10.396;2022-09-16T02:38:08;12.10;99.90
2723;DHT22;1369;53.216;10.396;2022-09-16T02:40:47;12.20;99.90
2723;DHT22;1369;53.216;10.396;2022-09-16T02:43:13;12.20;99.90
2723;DHT22;1369;53.216;10.396;2022-09-16T02:54:23;12.20;99.90
2723;DHT22;1369;53.216;10.396;2022-09-16T02:56:49;12.20;99.90
2723;DHT22;1369;53.216;10.396;2022-09-16T02:59:15;12.20;99.90
2723;DHT22;1369;53.216;10.396;2022-09-16T03:01:43;12.10;99.90
2723;DHT22;1369;53.216;10.396;2022-09-16T03:04:11;12.00;99.90
2723;DHT22;1369;53.216;10.396;2022-09-16T03:06:37;12.00;99.90
2723;DHT22;1369;53.216;10.396;2022-09-16T03:09:05;11.90;99.90
2723;DHT22;1369;53.216;10.396;2022-09-16T03:11:44;11.80;99.90
2723;DHT22;1369;53.216;10.396;2022-09-16T03:20:35;11.70;99.90
2723;DHT22;1369;53.216;10.396;2022-09-16T03:23:40;11.70;99.90
2723;DHT22;1369;53.216;10.396;2022-09-16T03:26:25;11.70;99.90
2723;DHT22;1369;53.216;10.396;2022-09-16T03:34:30;11.90;99.90
2723;DHT22;1369;53.216;10.396;2022-09-16T03:37:01;11.90;99.90
2723;DHT22;1369;53.216;10.396;2022-09-16T03:39:30;12.00;99.90
2723;DHT22;1369;53.216;10.396;2022-09-16T03:42:03;12.00;99.90
2723;DHT22;1369;53.216;10.396;2022-09-16T03:44:34;12.00;99.90
2723;DHT22;1369;53.216;10.396;2022-09-16T03:47:01;12.00;99.90
2723;DHT22;1369;53.216;10.396;2022-09-16T03:49:27;11.90;99.90
2723;DHT22;1369;53.216;10.396;2022-09-16T03:51:54;11.90;99.90
2723;DHT22;1369;53.216;10.396;2022-09-16T03:54:19;11.90;99.90
2723;DHT22;1369;53.216;10.396;2022-09-16T03:56:45;11.80;99.90
2723;DHT22;1369;53.216;10.396;2022-09-16T03:59:11;11.70;99.90
2723;DHT22;1369;53.216;10.396;2022-09-16T04:01:36;11.70;99.90
2723;DHT22;1369;53.216;10.396;2022-09-16T04:04:02;11.60;99.90
2723;DHT22;1369;53.216;10.396;2022-09-16T04:06:28;11.60;99.90
2723;DHT22;1369;53.216;10.396;2022-09-16T04:08:54;11.60;99.90
2723;DHT22;1369;53.216;10.396;2022-09-16T04:11:21;11.50;99.90
2723;DHT22;1369;53.216;10.396;2022-09-16T04:13:47;11.50;99.90
2723;DHT22;1369;53.216;10.396;2022-09-16T04:16:18;11.50;99.90
2723;DHT22;1369;53.216;10.396;2022-09-16T04:18:43;11.50;99.90
2723;DHT22;1369;53.216;10.396;2022-09-16T04:21:09;11.50;99.90
2723;DHT22;1369;53.216;10.396;2022-09-16T04:23:34;11.50;99.90
2723;DHT22;1369;53.216;10.396;2022-09-16T04:26:01;11.50;99.90
2723;DHT22;1369;53.216;10.396;2022-09-16T04:28:28;11.60;99.90
2723;DHT22;1369;53.216;10.396;2022-09-16T04:31:05;11.60;99.90
2723;DHT22;1369;53.216;10.396;2022-09-16T04:33:32;11.70;99.90
2723;DHT22;1369;53.216;10.396;2022-09-16T04:38:31;11.70;99.90
2723;DHT22;1369;53.216;10.396;2022-09-16T04:41:09;11.70;99.90
2723;DHT22;1369;53.216;10.396;2022-09-16T04:43:35;11.60;99.90
2723;DHT22;1369;53.216;10.396;2022-09-16T04:46:02;11.60;99.90
2723;DHT22;1369;53.216;10.396;2022-09-16T04:48:29;11.50;99.90
2723;DHT22;1369;53.216;10.396;2022-09-16T04:51:01;11.50;99.90
2723;DHT22;1369;53.216;10.396;2022-09-16T04:53:27;11.60;99.90
2723;DHT22;1369;53.216;10.396;2022-09-16T04:55:52;11.70;99.90
2723;DHT22;1369;53.216;10.396;2022-09-16T04:58:18;11.70;99.90
2723;DHT22;1369;53.216;10.396;2022-09-16T05:00:43;11.80;99.90
2723;DHT22;1369;53.216;10.396;2022-09-16T05:03:09;11.80;99.90
2723;DHT22;1369;53.216;10.396;2022-09-16T05:05:34;11.80;99.90
2723;DHT22;1369;53.216;10.396;2022-09-16T05:08:00;11.80;99.90
2723;DHT22;1369;53.216;10.396;2022-09-16T05:10:26;11.80;99.90
2723;DHT22;1369;53.216;10.396;2022-09-16T05:12:53;11.80;99.90
2723;DHT22;1369;53.216;10.396;2022-09-16T05:15:19;11.80;99.90
2723;DHT22;1369;53.216;10.396;2022-09-16T05:17:45;11.80;99.90
2723;DHT22;1369;53.216;10.396;2022-09-16T05:20:11;11.80;99.90
2723;DHT22;1369;53.216;10.396;2022-09-16T05:22:38;11.80;99.90
2723;DHT22;1369;53.216;10.396;2022-09-16T05:25:04;11.80;99.90
2723;DHT22;1369;53.216;10.396;2022-09-16T05:27:30;11.80;99.90
2723;DHT22;1369;53.216;10.396;2022-09-16T05:29:56;11.80;99.90
2723;DHT22;1369;53.216;10.396;2022-09-16T05:32:21;11.80;99.90
2723;DHT22;1369;53.216;10.396;2022-09-16T05:34:47;11.80;99.90
2723;DHT22;1369;53.216;10.396;2022-09-16T05:37:13;11.70;99.90
2723;DHT22;1369;53.216;10.396;2022-09-16T05:39:39;11.60;99.90
2723;DHT22;1369;53.216;10.396;2022-09-16T05:42:05;11.60;99.90
2723;DHT22;1369;53.216;10.396;2022-09-16T05:44:30;11.60;99.90
2723;DHT22;1369;53.216;10.396;2022-09-16T05:46:56;11.50;99.90
2723;DHT22;1369;53.216;10.396;2022-09-16T05:49:22;11.50;99.90
2723;DHT22;1369;53.216;10.396;2022-09-16T05:51:48;11.50;99.90
2723;DHT22;1369;53.216;10.396;2022-09-16T05:54:15;11.50;99.90
2723;DHT22;1369;53.216;10.396;2022-09-16T05:56:42;11.50;99.90
2723;DHT22;1369;53.216;10.396;2022-09-16T05:59:10;11.60;99.90
2723;DHT22;1369;53.216;10.396;2022-09-16T06:01:36;11.60;99.90
2723;DHT22;1369;53.216;10.396;2022-09-16T06:04:04;11.70;99.90
2723;DHT22;1369;53.216;10.396;2022-09-16T06:06:32;11.70;99.90
2723;DHT22;1369;53.216;10.396;2022-09-16T06:09:00;11.70;99.90
2723;DHT22;1369;53.216;10.396;2022-09-16T06:11:28;11.90;99.90
2723;DHT22;1369;53.216;10.396;2022-09-16T06:13:56;11.90;99.90
2723;DHT22;1369;53.216;10.396;2022-09-16T06:16:23;11.90;99.90
2723;DHT22;1369;53.216;10.396;2022-09-16T06:18:53;12.00;99.90
2723;DHT22;1369;53.216;10.396;2022-09-16T06:21:19;11.90;99.90
2723;DHT22;1369;53.216;10.396;2022-09-16T06:23:44;11.90;99.90
2723;DHT22;1369;53.216;10.396;2022-09-16T06:26:13;11.90;99.90
2723;DHT22;1369;53.216;10.396;2022-09-16T06:28:39;11.90;99.90
2723;DHT22;1369;53.216;10.396;2022-09-16T06:31:21;11.90;99.90
2723;DHT22;1369;53.216;10.396;2022-09-16T06:33:47;11.80;99.90
2723;DHT22;1369;53.216;10.396;2022-09-16T06:36:17;11.80;99.90
2723;DHT22;1369;53.216;10.396;2022-09-16T06:38:44;11.90;99.90
2723;DHT22;1369;53.216;10.396;2022-09-16T06:41:10;11.90;99.90
2723;DHT22;1369;53.216;10.396;2022-09-16T06:43:37;11.90;99.90
2723;DHT22;1369;53.216;10.396;2022-09-16T06:46:06;12.00;99.90
2723;DHT22;1369;53.216;10.396;2022-09-16T06:48:34;12.20;99.90
2723;DHT22;1369;53.216;10.396;2022-09-16T06:51:02;12.30;99.90
2723;DHT22;1369;53.216;10.396;2022-09-16T06:53:28;12.50;99.90
2723;DHT22;1369;53.216;10.396;2022-09-16T06:55:54;12.60;99.90
2723;DHT22;1369;53.216;10.396;2022-09-16T06:58:23;12.70;99.90
2723;DHT22;1369;53.216;10.396;2022-09-16T07:00:49;12.70;99.90
2723;DHT22;1369;53.216;10.396;2022-09-16T07:03:15;12.70;99.90
2723;DHT22;1369;53.216;10.396;2022-09-16T07:05:40;12.70;99.90
2723;DHT22;1369;53.216;10.396;2022-09-16T07:08:06;12.80;99.90
2723;DHT22;1369;53.216;10.396;2022-09-16T07:10:31;13.00;99.90
2723;DHT22;1369;53.216;10.396;2022-09-16T07:12:57;13.20;99.90
2723;DHT22;1369;53.216;10.396;2022-09-16T07:15:22;13.40;99.90
2723;DHT22;1369;53.216;10.396;2022-09-16T07:17:53;13.30;99.90
2723;DHT22;1369;53.216;10.396;2022-09-16T07:20:19;13.30;99.90
2723;DHT22;1369;53.216;10.396;2022-09-16T07:22:45;13.20;99.90
2723;DHT22;1369;53.216;10.396;2022-09-16T07:25:15;13.30;99.90
2723;DHT22;1369;53.216;10.396;2022-09-16T07:27:40;13.30;99.90
2723;DHT22;1369;53.216;10.396;2022-09-16T07:30:07;13.30;99.90
2723;DHT22;1369;53.216;10.396;2022-09-16T07:32:33;13.40;99.90
2723;DHT22;1369;53.216;10.396;2022-09-16T07:34:58;13.50;99.90
2723;DHT22;1369;53.216;10.396;2022-09-16T07:37:24;13.60;99.90
2723;DHT22;1369;53.216;10.396;2022-09-16T07:39:49;13.70;99.90
2723;DHT22;1369;53.216;10.396;2022-09-16T07:42:15;13.90;99.90
2723;DHT22;1369;53.216;10.396;2022-09-16T07:44:40;14.00;99.90
2723;DHT22;1369;53.216;10.396;2022-09-16T07:47:06;14.10;99.90
2723;DHT22;1369;53.216;10.396;2022-09-16T07:49:31;14.20;99.90
2723;DHT22;1369;53.216;10.396;2022-09-16T07:51:57;14.30;99.90
2723;DHT22;1369;53.216;10.396;2022-09-16T07:54:22;14.40;99.90
2723;DHT22;1369;53.216;10.396;2022-09-16T07:56:48;14.60;99.90
2723;DHT22;1369;53.216;10.396;2022-09-16T07:59:16;14.70;99.90
2723;DHT22;1369;53.216;10.396;2022-09-16T08:01:42;14.80;99.90
2723;DHT22;1369;53.216;10.396;2022-09-16T08:04:07;15.00;99.90
2723;DHT22;1369;53.216;10.396;2022-09-16T08:06:37;15.10;99.90
2723;DHT22;1369;53.216;10.396;2022-09-16T08:09:03;15.30;99.90
2723;DHT22;1369;53.216;10.396;2022-09-16T08:11:29;15.50;99.90
2723;DHT22;1369;53.216;10.396;2022-09-16T08:13:57;15.70;99.90
2723;DHT22;1369;53.216;10.396;2022-09-16T08:16:23;16.00;99.90
2723;DHT22;1369;53.216;10.396;2022-09-16T08:18:50;16.40;99.90
2723;DHT22;1369;53.216;10.396;2022-09-16T08:21:22;16.90;99.90
2723;DHT22;1369;53.216;10.396;2022-09-16T08:23:49;17.30;99.90
2723;DHT22;1369;53.216;10.396;2022-09-16T08:26:16;17.60;99.90
2723;DHT22;1369;53.216;10.396;2022-09-16T08:28:43;17.80;99.90
2723;DHT22;1369;53.216;10.396;2022-09-16T08:31:09;18.00;99.90
2723;DHT22;1369;53.216;10.396;2022-09-16T08:33:34;18.60;99.90
2723;DHT22;1369;53.216;10.396;2022-09-16T08:38:33;20.10;99.90
2723;DHT22;1369;53.216;10.396;2022-09-16T08:49:11;21.00;99.90
2723;DHT22;1369;53.216;10.396;2022-09-16T08:51:40;20.80;99.90
2723;DHT22;1369;53.216;10.396;2022-09-16T08:54:10;21.00;99.90
2723;DHT22;1369;53.216;10.396;2022-09-16T08:56:37;21.30;99.90
2723;DHT22;1369;53.216;10.396;2022-09-16T08:59:10;21.60;99.90
2723;DHT22;1369;53.216;10.396;2022-09-16T09:04:05;21.10;99.90
2723;DHT22;1369;53.216;10.396;2022-09-16T09:12:08;20.30;99.90
2723;DHT22;1369;53.216;10.396;2022-09-16T09:17:34;19.80;99.90
2723;DHT22;1369;53.216;10.396;2022-09-16T09:20:35;19.90;99.90
2723;DHT22;1369;53.216;10.396;2022-09-16T09:26:01;19.00;99.90
2723;DHT22;1369;53.216;10.396;2022-09-16T09:39:51;19.20;99.90
2723;DHT22;1369;53.216;10.396;2022-09-16T09:42:27;19.30;99.90
2723;DHT22;1369;53.216;10.396;2022-09-16T09:45:32;19.40;99.90
2723;DHT22;1369;53.216;10.396;2022-09-16T09:48:21;19.50;99.90
2723;DHT22;1369;53.216;10.396;2022-09-16T09:50:49;19.10;99.90
2723;DHT22;1369;53.216;10.396;2022-09-16T09:53:40;18.90;99.90
2723;DHT22;1369;53.216;10.396;2022-09-16T09:56:17;18.80;99.90
2723;DHT22;1369;53.216;10.396;2022-09-16T10:01:19;18.20;99.90
2723;DHT22;1369;53.216;10.396;2022-09-16T10:03:44;18.50;99.90
2723;DHT22;1369;53.216;10.396;2022-09-16T10:06:11;19.10;99.90
2723;DHT22;1369;53.216;10.396;2022-09-16T10:08:47;19.70;99.90
2723;DHT22;1369;53.216;10.396;2022-09-16T10:11:19;20.20;99.90
2723;DHT22;1369;53.216;10.396;2022-09-16T10:13:50;20.40;99.90
2723;DHT22;1369;53.216;10.396;2022-09-16T10:16:19;20.40;99.90
2723;DHT22;1369;53.216;10.396;2022-09-16T10:18:55;20.70;99.90
2723;DHT22;1369;53.216;10.396;2022-09-16T10:21:22;20.80;99.90
2723;DHT22;1369;53.216;10.396;2022-09-16T10:23:56;20.60;99.90
2723;DHT22;1369;53.216;10.396;2022-09-16T10:26:25;20.30;99.90
2723;DHT22;1369;53.216;10.396;2022-09-16T10:29:00;20.30;99.90
2723;DHT22;1369;53.216;10.396;2022-09-16T10:31:33;20.30;99.90
2723;DHT22;1369;53.216;10.396;2022-09-16T10:33:59;20.20;99.90
2723;DHT22;1369;53.216;10.396;2022-09-16T10:36:28;20.20;99.90
2723;DHT22;1369;53.216;10.396;2022-09-16T10:38:58;20.20;99.90
2723;DHT22;1369;53.216;10.396;2022-09-16T10:41:31;20.20;99.90
2723;DHT22;1369;53.216;10.396;2022-09-16T10:43:59;20.20;99.90
2723;DHT22;1369;53.216;10.396;2022-09-16T10:46:27;20.00;99.90
2723;DHT22;1369;53.216;10.396;2022-09-16T10:48:58;19.70;99.90
2723;DHT22;1369;53.216;10.396;2022-09-16T10:51:26;19.40;99.90
2723;DHT22;1369;53.216;10.396;2022-09-16T10:53:55;19.10;99.90
2723;DHT22;1369;53.216;10.396;2022-09-16T10:56:23;19.10;99.90
2723;DHT22;1369;53.216;10.396;2022-09-16T11:07:08;18.70;99.90
2723;DHT22;1369;53.216;10.396;2022-09-16T11:09:44;18.50;99.90
2723;DHT22;1369;53.216;10.396;2022-09-16T11:12:42;18.40;99.90
2723;DHT22;1369;53.216;10.396;2022-09-16T11:15:31;18.20;99.90
2723;DHT22;1369;53.216;10.396;2022-09-16T11:21:18;18.00;99.90
2723;DHT22;1369;53.216;10.396;2022-09-16T11:27:06;17.10;99.90
2723;DHT22;1369;53.216;10.396;2022-09-16T11:29:44;16.90;99.90
2723;DHT22;1369;53.216;10.396;2022-09-16T11:32:19;16.80;99.90
2723;DHT22;1369;53.216;10.396;2022-09-16T11:35:14;16.90;99.90
2723;DHT22;1369;53.216;10.396;2022-09-16T11:37:54;16.80;99.90
2723;DHT22;1369;53.216;10.396;2022-09-16T11:57:07;16.70;99.90
2723;DHT22;1369;53.216;10.396;2022-09-16T11:59:40;16.90;99.90
2723;DHT22;1369;53.216;10.396;2022-09-16T12:04:45;17.20;99.90
2723;DHT22;1369;53.216;10.396;2022-09-16T12:07:33;17.40;99.90
2723;DHT22;1369;53.216;10.396;2022-09-16T12:12:36;17.70;99.90
2723;DHT22;1369;53.216;10.396;2022-09-16T12:15:19;17.80;99.90
2723;DHT22;1369;53.216;10.396;2022-09-16T12:17:53;17.90;99.90
2723;DHT22;1369;53.216;10.396;2022-09-16T12:20:30;18.00;99.90
2723;DHT22;1369;53.216;10.396;2022-09-16T12:23:12;18.10;99.90
2723;DHT22;1369;53.216;10.396;2022-09-16T12:26:03;18.20;99.90
2723;DHT22;1369;53.216;10.396;2022-09-16T12:28:34;18.40;99.90
2723;DHT22;1369;53.216;10.396;2022-09-16T12:34:02;18.80;99.90
2723;DHT22;1369;53.216;10.396;2022-09-16T12:36:31;19.00;99.90
2723;DHT22;1369;53.216;10.396;2022-09-16T12:38:59;19.10;99.90
2723;DHT22;1369;53.216;10.396;2022-09-16T12:41:43;19.10;99.90
2723;DHT22;1369;53.216;10.396;2022-09-16T12:44:33;18.80;99.90
2723;DHT22;1369;53.216;10.396;2022-09-16T12:50:24;18.00;99.90
2723;DHT22;1369;53.216;10.396;2022-09-16T12:53:03;17.70;99.90
2723;DHT22;1369;53.216;10.396;2022-09-16T13:01:22;17.30;99.90
2723;DHT22;1369;53.216;10.396;2022-09-16T13:03:55;17.40;99.90
2723;DHT22;1369;53.216;10.396;2022-09-16T13:06:35;17.70;99.90
2723;DHT22;1369;53.216;10.396;2022-09-16T13:09:22;17.80;99.90
2723;DHT22;1369;53.216;10.396;2022-09-16T13:11:59;17.90;99.90
2723;DHT22;1369;53.216;10.396;2022-09-16T13:14:53;18.00;99.90
2723;DHT22;1369;53.216;10.396;2022-09-16T13:20:05;18.20;99.90
2723;DHT22;1369;53.216;10.396;2022-09-16T13:28:33;18.30;99.90
2723;DHT22;1369;53.216;10.396;2022-09-16T13:33:38;18.20;99.90
2723;DHT22;1369;53.216;10.396;2022-09-16T13:36:33;18.20;99.90
2723;DHT22;1369;53.216;10.396;2022-09-16T13:39:03;18.20;99.90
2723;DHT22;1369;53.216;10.396;2022-09-16T13:41:37;18.30;99.90
2723;DHT22;1369;53.216;10.396;2022-09-16T13:52:10;18.50;99.90
2723;DHT22;1369;53.216;10.396;2022-09-16T13:54:45;18.50;99.90
2723;DHT22;1369;53.216;10.396;2022-09-16T14:08:44;16.80;99.90
2723;DHT22;1369;53.216;10.396;2022-09-16T14:11:24;16.50;99.90
2723;DHT22;1369;53.216;10.396;2022-09-16T14:14:00;16.30;99.90
2723;DHT22;1369;53.216;10.396;2022-09-16T14:16:27;16.20;99.90
2723;DHT22;1369;53.216;10.396;2022-09-16T14:19:30;16.10;99.90
2723;DHT22;1369;53.216;10.396;2022-09-16T14:22:17;15.90;99.90
2723;DHT22;1369;53.216;10.396;2022-09-16T14:24:45;15.80;99.90
2723;DHT22;1369;53.216;10.396;2022-09-16T14:27:28;15.70;99.90
2723;DHT22;1369;53.216;10.396;2022-09-16T14:29:55;15.80;99.90
2723;DHT22;1369;53.216;10.396;2022-09-16T14:32:24;15.80;99.90
2723;DHT22;1369;53.216;10.396;2022-09-16T14:34:51;15.70;99.90
2723;DHT22;1369;53.216;10.396;2022-09-16T14:37:18;15.70;99.90
2723;DHT22;1369;53.216;10.396;2022-09-16T14:39:44;15.70;99.90
2723;DHT22;1369;53.216;10.396;2022-09-16T14:42:16;15.60;99.90
2723;DHT22;1369;53.216;10.396;2022-09-16T14:44:46;15.60;99.90
2723;DHT22;1369;53.216;10.396;2022-09-16T14:47:35;15.40;99.90
2723;DHT22;1369;53.216;10.396;2022-09-16T14:50:10;15.40;99.90
2723;DHT22;1369;53.216;10.396;2022-09-16T14:52:37;15.20;99.90
2723;DHT22;1369;53.216;10.396;2022-09-16T14:55:19;15.10;99.90
2723;DHT22;1369;53.216;10.396;2022-09-16T14:57:45;14.90;99.90
2723;DHT22;1369;53.216;10.396;2022-09-16T15:00:13;14.70;99.90
2723;DHT22;1369;53.216;10.396;2022-09-16T15:03:00;14.50;99.90
2723;DHT22;1369;53.216;10.396;2022-09-16T15:05:34;14.30;99.90
2723;DHT22;1369;53.216;10.396;2022-09-16T15:08:09;14.30;99.90
2723;DHT22;1369;53.216;10.396;2022-09-16T15:10:37;14.10;99.90
2723;DHT22;1369;53.216;10.396;2022-09-16T15:13:11;14.10;99.90
2723;DHT22;1369;53.216;10.396;2022-09-16T15:15:53;14.00;99.90
2723;DHT22;1369;53.216;10.396;2022-09-16T15:18:21;13.90;99.90
2723;DHT22;1369;53.216;10.396;2022-09-16T15:20:52;13.80;99.90
2723;DHT22;1369;53.216;10.396;2022-09-16T15:23:23;13.80;99.90
2723;DHT22;1369;53.216;10.396;2022-09-16T15:26:08;13.80;99.90
2723;DHT22;1369;53.216;10.396;2022-09-16T15:28:34;13.80;99.90
2723;DHT22;1369;53.216;10.396;2022-09-16T15:30:59;13.70;99.90
2723;DHT22;1369;53.216;10.396;2022-09-16T15:33:38;13.60;99.90
2723;DHT22;1369;53.216;10.396;2022-09-16T15:36:05;13.50;99.90
2723;DHT22;1369;53.216;10.396;2022-09-16T15:38:32;13.50;99.90
2723;DHT22;1369;53.216;10.396;2022-09-16T15:41:05;13.50;99.90
2723;DHT22;1369;53.216;10.396;2022-09-16T15:43:37;13.40;99.90
2723;DHT22;1369;53.216;10.396;2022-09-16T15:46:12;13.50;99.90
2723;DHT22;1369;53.216;10.396;2022-09-16T15:49:00;13.40;99.90
2723;DHT22;1369;53.216;10.396;2022-09-16T15:59:37;13.30;99.90
2723;DHT22;1369;53.216;10.396;2022-09-16T16:04:43;13.30;99.90
2723;DHT22;1369;53.216;10.396;2022-09-16T16:07:09;13.30;99.90
2723;DHT22;1369;53.216;10.396;2022-09-16T16:09:42;13.20;99.90
2723;DHT22;1369;53.216;10.396;2022-09-16T16:12:15;13.20;99.90
2723;DHT22;1369;53.216;10.396;2022-09-16T16:14:41;13.20;99.90
2723;DHT22;1369;53.216;10.396;2022-09-16T16:17:15;13.30;99.90
2723;DHT22;1369;53.216;10.396;2022-09-16T16:19:44;13.30;99.90
2723;DHT22;1369;53.216;10.396;2022-09-16T16:22:10;13.30;99.90
2723;DHT22;1369;53.216;10.396;2022-09-16T16:24:36;13.30;99.90
2723;DHT22;1369;53.216;10.396;2022-09-16T16:27:03;13.30;99.90
2723;DHT22;1369;53.216;10.396;2022-09-16T16:29:28;13.30;99.90
2723;DHT22;1369;53.216;10.396;2022-09-16T16:32:11;13.30;99.90
2723;DHT22;1369;53.216;10.396;2022-09-16T16:34:42;13.30;99.90
2723;DHT22;1369;53.216;10.396;2022-09-16T16:37:08;13.30;99.90
2723;DHT22;1369;53.216;10.396;2022-09-16T16:39:35;13.30;99.90
2723;DHT22;1369;53.216;10.396;2022-09-16T16:42:00;13.30;99.90
2723;DHT22;1369;53.216;10.396;2022-09-16T16:44:26;13.30;99.90
2723;DHT22;1369;53.216;10.396;2022-09-16T16:46:53;13.40;99.90
2723;DHT22;1369;53.216;10.396;2022-09-16T16:49:20;13.40;99.90
2723;DHT22;1369;53.216;10.396;2022-09-16T16:51:50;13.30;99.90
2723;DHT22;1369;53.216;10.396;2022-09-16T16:54:17;13.40;99.90
2723;DHT22;1369;53.216;10.396;2022-09-16T16:56:44;13.40;99.90
2723;DHT22;1369;53.216;10.396;2022-09-16T16:59:09;13.40;99.90
2723;DHT22;1369;53.216;10.396;2022-09-16T17:01:36;13.40;99.90
2723;DHT22;1369;53.216;10.396;2022-09-16T17:04:03;13.40;99.90
2723;DHT22;1369;53.216;10.396;2022-09-16T17:06:29;13.30;99.90
2723;DHT22;1369;53.216;10.396;2022-09-16T17:08:56;13.30;99.90
2723;DHT22;1369;53.216;10.396;2022-09-16T17:11:21;13.30;99.90
2723;DHT22;1369;53.216;10.396;2022-09-16T17:13:50;13.30;99.90
2723;DHT22;1369;53.216;10.396;2022-09-16T17:16:19;13.30;99.90
2723;DHT22;1369;53.216;10.396;2022-09-16T17:18:45;13.30;99.90
2723;DHT22;1369;53.216;10.396;2022-09-16T17:21:22;13.30;99.90
2723;DHT22;1369;53.216;10.396;2022-09-16T17:23:48;13.30;99.90
2723;DHT22;1369;53.216;10.396;2022-09-16T17:26:14;13.20;99.90
2723;DHT22;1369;53.216;10.396;2022-09-16T17:28:43;13.20;99.90
2723;DHT22;1369;53.216;10.396;2022-09-16T17:31:35;13.20;99.90
2723;DHT22;1369;53.216;10.396;2022-09-16T17:34:04;13.20;99.90
2723;DHT22;1369;53.216;10.396;2022-09-16T17:36:31;13.20;99.90
2723;DHT22;1369;53.216;10.396;2022-09-16T17:39:07;13.20;99.90
2723;DHT22;1369;53.216;10.396;2022-09-16T17:41:33;13.20;99.90
2723;DHT22;1369;53.216;10.396;2022-09-16T17:44:03;13.20;99.90
2723;DHT22;1369;53.216;10.396;2022-09-16T17:46:29;13.20;99.90
2723;DHT22;1369;53.216;10.396;2022-09-16T17:49:03;13.20;99.90
2723;DHT22;1369;53.216;10.396;2022-09-16T17:51:30;13.20;99.90
2723;DHT22;1369;53.216;10.396;2022-09-16T17:53:57;13.20;99.90
2723;DHT22;1369;53.216;10.396;2022-09-16T17:56:23;13.20;99.90
2723;DHT22;1369;53.216;10.396;2022-09-16T17:58:51;13.20;99.90
2723;DHT22;1369;53.216;10.396;2022-09-16T18:01:19;13.20;99.90
2723;DHT22;1369;53.216;10.396;2022-09-16T18:03:46;13.20;99.90
2723;DHT22;1369;53.216;10.396;2022-09-16T18:06:18;13.20;99.90
2723;DHT22;1369;53.216;10.396;2022-09-16T18:08:44;13.20;99.90
2723;DHT22;1369;53.216;10.396;2022-09-16T18:11:12;13.20;99.90
2723;DHT22;1369;53.216;10.396;2022-09-16T18:13:38;13.20;99.90
2723;DHT22;1369;53.216;10.396;2022-09-16T18:16:13;13.20;99.90
2723;DHT22;1369;53.216;10.396;2022-09-16T18:18:40;13.20;99.90
2723;DHT22;1369;53.216;10.396;2022-09-16T18:21:10;13.20;99.90
2723;DHT22;1369;53.216;10.396;2022-09-16T18:23:38;13.20;99.90
2723;DHT22;1369;53.216;10.396;2022-09-16T18:26:06;13.30;99.90
2723;DHT22;1369;53.216;10.396;2022-09-16T18:28:37;13.30;99.90
2723;DHT22;1369;53.216;10.396;2022-09-16T18:31:07;13.30;99.90
2723;DHT22;1369;53.216;10.396;2022-09-16T18:33:34;13.30;99.90
2723;DHT22;1369;53.216;10.396;2022-09-16T18:36:01;13.30;99.90
2723;DHT22;1369;53.216;10.396;2022-09-16T18:38:28;13.30;99.90
2723;DHT22;1369;53.216;10.396;2022-09-16T18:43:29;13.20;99.90
2723;DHT22;1369;53.216;10.396;2022-09-16T18:46:04;13.20;99.90
2723;DHT22;1369;53.216;10.396;2022-09-16T18:48:30;13.20;99.90
2723;DHT22;1369;53.216;10.396;2022-09-16T18:50:55;13.20;99.90
2723;DHT22;1369;53.216;10.396;2022-09-16T18:53:20;13.20;99.90
2723;DHT22;1369;53.216;10.396;2022-09-16T18:55:46;13.30;99.90
2723;DHT22;1369;53.216;10.396;2022-09-16T18:58:12;13.20;99.90
2723;DHT22;1369;53.216;10.396;2022-09-16T19:00:37;13.30;99.90